Airfield :
LOGIN :

Register | Disclaimer

   EN    FR    IT 

 










Legend :    VFR   Marginal VFR   IFR   Intensive IFR   Very Intensive IFR
Visi :
Ceiling :
>= 8 km
>= 3000ft
5 to 8 km
1000 to 3000 ft
1500m to 5 km
500 to 1000 ft
800 to 1500m
200 to 500 ft
< 800m
< 200 ft
Symbols :   Thunderstorms  Fog  Heavy snow  Heavy precipitations  Wind > 20 kt
SIGMETs :     Misc.  Thunderstorms  Icing  Turbulence  Mountain Waves  Volcanic Ashes







- Airport Elevation : 200 ft


EBBL - Klein Brogel AB

CURRENT METAR :
  • 201955Z AUTO 30003KT 9999 NCD 19/08 Q1022 BLU

EXPIRED METARs :
  • 201925Z AUTO 31003KT 9999 NCD 21/07 Q1022 BLU
  • 201855Z AUTO 31003KT 9999 NCD 22/07 Q1022 BLU
  • 201825Z AUTO 32003KT 9999 NCD 23/08 Q1021 BLU
  • 201755Z AUTO 31004KT 9999 NCD 24/08 Q1021 BLU
  • 201725Z AUTO 33007KT 9999 NCD 25/10 Q1021 BLU

TAF TAF EBBL
Valid from the 20 at 19:00 until the 21 at 07:00 UTC


201541Z 2019/2107 25007KT 9999 FEW030
BECMG 2023/2101 31005KT BKN004
TEMPO 2101/2107 VRB03KT 4000 BR BKN002
TEMPO 2101/2107 0200 FG BKN001
No reported NOTAMs for that airfield.



MET'MAP, your aeronautical weather chart ! - Copyright ORBIFLY December 2007 - Disclaimer

ORBIFLY MET'MAP TEAM :

Programming & Development : Alexandra Zaïnal
Concept & Development : Baudouin d'Aumeries
Co-Development & Prog : Marc-Olivier Méhu
Technical & hardware support : Manuel Goepfert

Contact : metmap@orbifly.com




SOURCES & CREDITS :

   NOAA